TimeCST,TemperatureF,Dew PointF,Humidity,Sea Level PressureIn,VisibilityMPH,Wind Direction,Wind SpeedMPH,Gust SpeedMPH,PrecipitationIn,Events,Conditions,WindDirDegrees,DateUTC
12:53 AM,54.0,52.0,93,30.11,9.0,WSW,4.6,-,0.03,Rain,Light Rain,240,2013-12-23 06:53:00
1:21 AM,53.6,51.8,94,30.10,10.0,WSW,3.5,-,0.00,,Overcast,250,2013-12-23 07:21:00
1:53 AM,54.0,52.0,93,30.10,10.0,West,5.8,-,0.00,,Overcast,280,2013-12-23 07:53:00
2:21 AM,53.6,51.8,94,30.11,5.0,West,8.1,-,N/A,,Overcast,260,2013-12-23 08:21:00
2:33 AM,53.6,51.8,94,30.13,5.0,West,8.1,-,0.00,Rain,Light Rain,270,2013-12-23 08:33:00
2:53 AM,53.1,51.1,93,30.14,8.0,WNW,5.8,-,0.01,,Overcast,290,2013-12-23 08:53:00
3:41 AM,53.6,50.0,88,30.15,10.0,NW,11.5,18.4,N/A,,Overcast,320,2013-12-23 09:41:00
3:50 AM,51.8,48.2,88,30.15,10.0,NW,15.0,-,N/A,,Overcast,310,2013-12-23 09:50:00
3:53 AM,52.0,48.9,89,30.15,10.0,NW,15.0,-,N/A,,Overcast,310,2013-12-23 09:53:00
4:17 AM,50.0,48.2,94,30.16,10.0,WNW,13.8,20.7,N/A,,Overcast,300,2013-12-23 10:17:00
4:53 AM,46.9,44.1,90,30.19,8.0,NNW,21.9,26.5,N/A,,Overcast,340,2013-12-23 10:53:00
5:53 AM,45.0,42.1,90,30.23,10.0,NNW,11.5,17.3,N/A,,Overcast,340,2013-12-23 11:53:00
6:08 AM,44.6,42.8,93,30.24,10.0,NNW,10.4,-,N/A,,Overcast,340,2013-12-23 12:08:00
6:25 AM,44.6,41.0,87,30.25,10.0,NNW,9.2,-,N/A,,Overcast,340,2013-12-23 12:25:00
6:53 AM,45.0,42.1,90,30.26,10.0,NNW,8.1,-,N/A,,Overcast,340,2013-12-23 12:53:00
7:34 AM,44.6,41.0,87,30.26,7.0,North,11.5,-,N/A,,Overcast,350,2013-12-23 13:34:00
7:53 AM,44.1,41.0,89,30.27,7.0,NNW,12.7,-,N/A,,Overcast,330,2013-12-23 13:53:00
8:30 AM,42.8,39.2,87,30.29,10.0,North,11.5,-,N/A,,Overcast,350,2013-12-23 14:30:00
8:45 AM,42.8,39.2,87,30.30,10.0,NNW,11.5,-,N/A,,Overcast,340,2013-12-23 14:45:00
8:53 AM,42.1,39.0,89,30.30,9.0,North,15.0,-,N/A,,Overcast,350,2013-12-23 14:53:00
9:53 AM,41.0,39.0,93,30.33,5.0,NNW,13.8,18.4,0.00,,Light Drizzle,340,2013-12-23 15:53:00
10:44 AM,41.0,37.4,87,30.34,10.0,North,11.5,-,0.00,,Overcast,350,2013-12-23 16:44:00
10:53 AM,41.0,37.0,86,30.34,10.0,North,11.5,-,0.00,,Overcast,350,2013-12-23 16:53:00
11:53 AM,41.0,36.0,82,30.33,10.0,NNW,12.7,-,N/A,,Overcast,340,2013-12-23 17:53:00
12:30 PM,41.0,35.6,81,30.32,10.0,North,15.0,-,N/A,,Overcast,350,2013-12-23 18:30:00
12:53 PM,41.0,35.1,79,30.32,10.0,NW,12.7,-,N/A,,Overcast,320,2013-12-23 18:53:00
1:53 PM,41.0,34.0,76,30.32,10.0,NNW,15.0,19.6,N/A,,Overcast,340,2013-12-23 19:53:00
2:53 PM,41.0,32.0,70,30.32,10.0,North,11.5,-,N/A,,Overcast,350,2013-12-23 20:53:00
3:53 PM,39.9,30.9,70,30.34,10.0,NNW,12.7,-,N/A,,Overcast,330,2013-12-23 21:53:00
4:53 PM,39.0,30.0,70,30.35,10.0,North,10.4,-,N/A,,Overcast,360,2013-12-23 22:53:00
5:53 PM,39.0,30.0,70,30.37,10.0,North,10.4,-,N/A,,Overcast,10,2013-12-23 23:53:00
6:53 PM,36.0,28.0,73,30.39,10.0,North,8.1,-,N/A,,Mostly Cloudy,350,2013-12-24 00:53:00
7:53 PM,37.0,28.0,70,30.40,10.0,North,9.2,-,N/A,,Overcast,350,2013-12-24 01:53:00
8:25 PM,33.8,26.6,75,30.41,10.0,North,4.6,-,N/A,,Scattered Clouds,350,2013-12-24 02:25:00
8:53 PM,33.1,27.0,78,30.42,10.0,North,5.8,-,N/A,,Clear,360,2013-12-24 02:53:00
9:53 PM,32.0,26.1,79,30.43,10.0,North,3.5,-,N/A,,Clear,350,2013-12-24 03:53:00
10:53 PM,30.9,26.1,82,30.44,10.0,Calm,Calm,-,N/A,,Clear,0,2013-12-24 04:53:00
11:53 PM,30.9,27.0,85,30.45,10.0,NW,6.9,-,N/A,,Clear,310,2013-12-24 05:53:00